<?xml version="1.0" encoding="UTF-8" standalone="no" ?>
<gpx xmlns="http://www.topografix.com/GPX/1/1" xmlns:xsi="http://www.w3.org/2001/XMLSchema-instance" xsi:schemaLocation="http://www.topografix.com/GPX/1/1 http://www.topografix.com/GPX/1/1/gpx.xsd" version="1.1" creator="VisuGPX - https://www.visugpx.com">
  <metadata>
    <name>Saint Nicolas DG samedi 23 juillet 2011</name>
    <desc><![CDATA[Tour du Saint Nicolas DG samedi 23 juillet 2011]]></desc>
  </metadata>
  <trk>
    <name><![CDATA[2011-07-23T09:01:01Z]]></name>
    <trkseg>
      <trkpt lat="47.47421" lon="-0.57655">
        <ele>19.8443604</ele>
        <time>2011-07-23T09:01:01Z</time>
      </trkpt>
      <trkpt lat="47.47423" lon="-0.57654">
        <ele>19.3637695</ele>
        <time>2011-07-23T09:01:02Z</time>
      </trkpt>
      <trkpt lat="47.47426" lon="-0.57654">
        <ele>19.3637695</ele>
        <time>2011-07-23T09:01:03Z</time>
      </trkpt>
      <trkpt lat="47.47431" lon="-0.57654">
        <ele>19.8443604</ele>
        <time>2011-07-23T09:01:05Z</time>
      </trkpt>
      <trkpt lat="47.47438" lon="-0.57654">
        <ele>21.286377</ele>
        <time>2011-07-23T09:01:07Z</time>
      </trkpt>
      <trkpt lat="47.47448" lon="-0.57655">
        <ele>20.8056641</ele>
        <time>2011-07-23T09:01:10Z</time>
      </trkpt>
      <trkpt lat="47.4745" lon="-0.57656">
        <ele>20.8056641</ele>
        <time>2011-07-23T09:01:11Z</time>
      </trkpt>
      <trkpt lat="47.47458" lon="-0.57659">
        <ele>19.8443604</ele>
        <time>2011-07-23T09:01:14Z</time>
      </trkpt>
      <trkpt lat="47.47464" lon="-0.57663">
        <ele>19.3637695</ele>
        <time>2011-07-23T09:01:17Z</time>
      </trkpt>
      <trkpt lat="47.47466" lon="-0.57665">
        <ele>19.3637695</ele>
        <time>2011-07-23T09:01:18Z</time>
      </trkpt>
      <trkpt lat="47.47476" lon="-0.57671">
        <ele>22.2475586</ele>
        <time>2011-07-23T09:01:21Z</time>
      </trkpt>
      <trkpt lat="47.47482" lon="-0.57676">
        <ele>22.7282715</ele>
        <time>2011-07-23T09:01:23Z</time>
      </trkpt>
      <trkpt lat="47.47496" lon="-0.5769">
        <ele>22.7282715</ele>
        <time>2011-07-23T09:01:28Z</time>
      </trkpt>
      <trkpt lat="47.47505" lon="-0.57705">
        <ele>22.7282715</ele>
        <time>2011-07-23T09:01:33Z</time>
      </trkpt>
      <trkpt lat="47.47507" lon="-0.57715">
        <ele>24.1702881</ele>
        <time>2011-07-23T09:01:35Z</time>
      </trkpt>
      <trkpt lat="47.47514" lon="-0.57734">
        <ele>27.0543213</ele>
        <time>2011-07-23T09:01:40Z</time>
      </trkpt>
      <trkpt lat="47.47519" lon="-0.57753">
        <ele>30.8995361</ele>
        <time>2011-07-23T09:01:45Z</time>
      </trkpt>
      <trkpt lat="47.4753" lon="-0.57773">
        <ele>32.3415527</ele>
        <time>2011-07-23T09:01:52Z</time>
      </trkpt>
      <trkpt lat="47.47539" lon="-0.57783">
        <ele>30.8995361</ele>
        <time>2011-07-23T09:01:56Z</time>
      </trkpt>
      <trkpt lat="47.47546" lon="-0.57794">
        <ele>29.9381104</ele>
        <time>2011-07-23T09:02:01Z</time>
      </trkpt>
      <trkpt lat="47.47549" lon="-0.57805">
        <ele>31.8607178</ele>
        <time>2011-07-23T09:02:04Z</time>
      </trkpt>
      <trkpt lat="47.47551" lon="-0.57826">
        <ele>32.3415527</ele>
        <time>2011-07-23T09:02:10Z</time>
      </trkpt>
      <trkpt lat="47.47555" lon="-0.57855">
        <ele>30.4188232</ele>
        <time>2011-07-23T09:02:17Z</time>
      </trkpt>
      <trkpt lat="47.47561" lon="-0.57878">
        <ele>26.0928955</ele>
        <time>2011-07-23T09:02:23Z</time>
      </trkpt>
      <trkpt lat="47.47564" lon="-0.57893">
        <ele>26.5736084</ele>
        <time>2011-07-23T09:02:28Z</time>
      </trkpt>
      <trkpt lat="47.47565" lon="-0.57897">
        <ele>26.5736084</ele>
        <time>2011-07-23T09:02:29Z</time>
      </trkpt>
      <trkpt lat="47.47569" lon="-0.57915">
        <ele>23.2089844</ele>
        <time>2011-07-23T09:02:34Z</time>
      </trkpt>
      <trkpt lat="47.47576" lon="-0.57927">
        <ele>21.7669678</ele>
        <time>2011-07-23T09:02:37Z</time>
      </trkpt>
      <trkpt lat="47.47578" lon="-0.5793">
        <ele>21.286377</ele>
        <time>2011-07-23T09:02:38Z</time>
      </trkpt>
      <trkpt lat="47.47581" lon="-0.5795">
        <ele>22.7282715</ele>
        <time>2011-07-23T09:02:44Z</time>
      </trkpt>
      <trkpt lat="47.47582" lon="-0.57968">
        <ele>25.1317139</ele>
        <time>2011-07-23T09:02:49Z</time>
      </trkpt>
      <trkpt lat="47.47586" lon="-0.57988">
        <ele>23.6895752</ele>
        <time>2011-07-23T09:02:54Z</time>
      </trkpt>
      <trkpt lat="47.4759" lon="-0.5801">
        <ele>23.2089844</ele>
        <time>2011-07-23T09:03:00Z</time>
      </trkpt>
      <trkpt lat="47.47592" lon="-0.58017">
        <ele>22.7282715</ele>
        <time>2011-07-23T09:03:02Z</time>
      </trkpt>
      <trkpt lat="47.47594" lon="-0.58024">
        <ele>22.2475586</ele>
        <time>2011-07-23T09:03:04Z</time>
      </trkpt>
      <trkpt lat="47.47601" lon="-0.58039">
        <ele>20.8056641</ele>
        <time>2011-07-23T09:03:09Z</time>
      </trkpt>
      <trkpt lat="47.47612" lon="-0.58055">
        <ele>18.8830566</ele>
        <time>2011-07-23T09:03:14Z</time>
      </trkpt>
      <trkpt lat="47.47627" lon="-0.58072">
        <ele>18.8830566</ele>
        <time>2011-07-23T09:03:21Z</time>
      </trkpt>
      <trkpt lat="47.47638" lon="-0.58079">
        <ele>16.4797363</ele>
        <time>2011-07-23T09:03:27Z</time>
      </trkpt>
      <trkpt lat="47.47644" lon="-0.58077">
        <ele>14.5570068</ele>
        <time>2011-07-23T09:03:30Z</time>
      </trkpt>
      <trkpt lat="47.4766" lon="-0.5807">
        <ele>13.1151123</ele>
        <time>2011-07-23T09:03:36Z</time>
      </trkpt>
      <trkpt lat="47.47669" lon="-0.58068">
        <ele>13.5958252</ele>
        <time>2011-07-23T09:03:40Z</time>
      </trkpt>
      <trkpt lat="47.47682" lon="-0.58065">
        <ele>16.9604492</ele>
        <time>2011-07-23T09:03:45Z</time>
      </trkpt>
      <trkpt lat="47.47693" lon="-0.58064">
        <ele>17.4411621</ele>
        <time>2011-07-23T09:03:48Z</time>
      </trkpt>
      <trkpt lat="47.4771" lon="-0.5806">
        <ele>17.9217529</ele>
        <time>2011-07-23T09:03:54Z</time>
      </trkpt>
      <trkpt lat="47.47717" lon="-0.58053">
        <ele>17.9217529</ele>
        <time>2011-07-23T09:03:58Z</time>
      </trkpt>
      <trkpt lat="47.47723" lon="-0.58045">
        <ele>18.8830566</ele>
        <time>2011-07-23T09:04:01Z</time>
      </trkpt>
      <trkpt lat="47.4773" lon="-0.58034">
        <ele>19.3637695</ele>
        <time>2011-07-23T09:04:05Z</time>
      </trkpt>
      <trkpt lat="47.47733" lon="-0.58018">
        <ele>18.8830566</ele>
        <time>2011-07-23T09:04:10Z</time>
      </trkpt>
      <trkpt lat="47.47738" lon="-0.58003">
        <ele>18.4023438</ele>
        <time>2011-07-23T09:04:14Z</time>
      </trkpt>
      <trkpt lat="47.47749" lon="-0.57993">
        <ele>18.4023438</ele>
        <time>2011-07-23T09:04:19Z</time>
      </trkpt>
      <trkpt lat="47.47755" lon="-0.57982">
        <ele>18.8830566</ele>
        <time>2011-07-23T09:04:23Z</time>
      </trkpt>
      <trkpt lat="47.47761" lon="-0.57967">
        <ele>19.8443604</ele>
        <time>2011-07-23T09:04:28Z</time>
      </trkpt>
      <trkpt lat="47.47769" lon="-0.57947">
        <ele>20.3249512</ele>
        <time>2011-07-23T09:04:34Z</time>
      </trkpt>
      <trkpt lat="47.47778" lon="-0.57935">
        <ele>21.286377</ele>
        <time>2011-07-23T09:04:39Z</time>
      </trkpt>
      <trkpt lat="47.47788" lon="-0.57926">
        <ele>22.7282715</ele>
        <time>2011-07-23T09:04:43Z</time>
      </trkpt>
      <trkpt lat="47.47804" lon="-0.57913">
        <ele>24.1702881</ele>
        <time>2011-07-23T09:04:49Z</time>
      </trkpt>
      <trkpt lat="47.47814" lon="-0.579">
        <ele>26.5736084</ele>
        <time>2011-07-23T09:04:54Z</time>
      </trkpt>
      <trkpt lat="47.47815" lon="-0.57897">
        <ele>26.5736084</ele>
        <time>2011-07-23T09:04:55Z</time>
      </trkpt>
      <trkpt lat="47.4782" lon="-0.5788">
        <ele>27.5349121</ele>
        <time>2011-07-23T09:05:01Z</time>
      </trkpt>
      <trkpt lat="47.47826" lon="-0.57876">
        <ele>29.4575195</ele>
        <time>2011-07-23T09:05:04Z</time>
      </trkpt>
      <trkpt lat="47.47839" lon="-0.57867">
        <ele>31.8607178</ele>
        <time>2011-07-23T09:05:09Z</time>
      </trkpt>
      <trkpt lat="47.47847" lon="-0.57857">
        <ele>32.8222656</ele>
        <time>2011-07-23T09:05:14Z</time>
      </trkpt>
      <trkpt lat="47.47857" lon="-0.57854">
        <ele>31.8607178</ele>
        <time>2011-07-23T09:05:20Z</time>
      </trkpt>
      <trkpt lat="47.47858" lon="-0.57856">
        <ele>30.8995361</ele>
        <time>2011-07-23T09:05:21Z</time>
      </trkpt>
      <trkpt lat="47.47866" lon="-0.57873">
        <ele>29.4575195</ele>
        <time>2011-07-23T09:05:26Z</time>
      </trkpt>
      <trkpt lat="47.47874" lon="-0.57893">
        <ele>26.5736084</ele>
        <time>2011-07-23T09:05:31Z</time>
      </trkpt>
      <trkpt lat="47.4788" lon="-0.5791">
        <ele>24.651001</ele>
        <time>2011-07-23T09:05:35Z</time>
      </trkpt>
      <trkpt lat="47.47887" lon="-0.57929">
        <ele>23.2089844</ele>
        <time>2011-07-23T09:05:40Z</time>
      </trkpt>
      <trkpt lat="47.47894" lon="-0.57948">
        <ele>21.7669678</ele>
        <time>2011-07-23T09:05:46Z</time>
      </trkpt>
      <trkpt lat="47.47897" lon="-0.57959">
        <ele>20.8056641</ele>
        <time>2011-07-23T09:05:49Z</time>
      </trkpt>
      <trkpt lat="47.47903" lon="-0.57979">
        <ele>18.8830566</ele>
        <time>2011-07-23T09:05:54Z</time>
      </trkpt>
      <trkpt lat="47.47907" lon="-0.58">
        <ele>18.4023438</ele>
        <time>2011-07-23T09:06:00Z</time>
      </trkpt>
      <trkpt lat="47.47915" lon="-0.58028">
        <ele>20.8056641</ele>
        <time>2011-07-23T09:06:07Z</time>
      </trkpt>
      <trkpt lat="47.47926" lon="-0.58054">
        <ele>23.2089844</ele>
        <time>2011-07-23T09:06:14Z</time>
      </trkpt>
      <trkpt lat="47.47928" lon="-0.58061">
        <ele>24.651001</ele>
        <time>2011-07-23T09:06:16Z</time>
      </trkpt>
      <trkpt lat="47.47942" lon="-0.58077">
        <ele>26.0928955</ele>
        <time>2011-07-23T09:06:22Z</time>
      </trkpt>
      <trkpt lat="47.47946" lon="-0.58084">
        <ele>26.0928955</ele>
        <time>2011-07-23T09:06:24Z</time>
      </trkpt>
      <trkpt lat="47.47952" lon="-0.5811">
        <ele>25.1317139</ele>
        <time>2011-07-23T09:06:30Z</time>
      </trkpt>
      <trkpt lat="47.47952" lon="-0.58132">
        <ele>25.1317139</ele>
        <time>2011-07-23T09:06:35Z</time>
      </trkpt>
      <trkpt lat="47.47951" lon="-0.58141">
        <ele>24.1702881</ele>
        <time>2011-07-23T09:06:37Z</time>
      </trkpt>
      <trkpt lat="47.47953" lon="-0.58163">
        <ele>24.1702881</ele>
        <time>2011-07-23T09:06:43Z</time>
      </trkpt>
      <trkpt lat="47.47953" lon="-0.58166">
        <ele>24.1702881</ele>
        <time>2011-07-23T09:06:44Z</time>
      </trkpt>
      <trkpt lat="47.47956" lon="-0.58177">
        <ele>24.1702881</ele>
        <time>2011-07-23T09:06:47Z</time>
      </trkpt>
      <trkpt lat="47.4796" lon="-0.58195">
        <ele>23.2089844</ele>
        <time>2011-07-23T09:06:52Z</time>
      </trkpt>
      <trkpt lat="47.47963" lon="-0.58207">
        <ele>22.7282715</ele>
        <time>2011-07-23T09:06:55Z</time>
      </trkpt>
      <trkpt lat="47.47965" lon="-0.58228">
        <ele>23.2089844</ele>
        <time>2011-07-23T09:07:00Z</time>
      </trkpt>
      <trkpt lat="47.47969" lon="-0.58241">
        <ele>24.651001</ele>
        <time>2011-07-23T09:07:04Z</time>
      </trkpt>
      <trkpt lat="47.47969" lon="-0.58245">
        <ele>25.1317139</ele>
        <time>2011-07-23T09:07:05Z</time>
      </trkpt>
      <trkpt lat="47.47971" lon="-0.58271">
        <ele>24.651001</ele>
        <time>2011-07-23T09:07:11Z</time>
      </trkpt>
      <trkpt lat="47.47974" lon="-0.58291">
        <ele>23.6895752</ele>
        <time>2011-07-23T09:07:16Z</time>
      </trkpt>
      <trkpt lat="47.47976" lon="-0.58309">
        <ele>22.2475586</ele>
        <time>2011-07-23T09:07:20Z</time>
      </trkpt>
      <trkpt lat="47.47983" lon="-0.58328">
        <ele>20.8056641</ele>
        <time>2011-07-23T09:07:25Z</time>
      </trkpt>
      <trkpt lat="47.47988" lon="-0.58345">
        <ele>20.3249512</ele>
        <time>2011-07-23T09:07:29Z</time>
      </trkpt>
      <trkpt lat="47.47996" lon="-0.58364">
        <ele>19.8443604</ele>
        <time>2011-07-23T09:07:35Z</time>
      </trkpt>
      <trkpt lat="47.48002" lon="-0.58378">
        <ele>20.3249512</ele>
        <time>2011-07-23T09:07:39Z</time>
      </trkpt>
      <trkpt lat="47.48002" lon="-0.58382">
        <ele>20.3249512</ele>
        <time>2011-07-23T09:07:40Z</time>
      </trkpt>
      <trkpt lat="47.48008" lon="-0.58402">
        <ele>20.8056641</ele>
        <time>2011-07-23T09:07:45Z</time>
      </trkpt>
      <trkpt lat="47.48017" lon="-0.58419">
        <ele>21.7669678</ele>
        <time>2011-07-23T09:07:50Z</time>
      </trkpt>
      <trkpt lat="47.48026" lon="-0.58434">
        <ele>20.3249512</ele>
        <time>2011-07-23T09:07:55Z</time>
      </trkpt>
      <trkpt lat="47.48035" lon="-0.58449">
        <ele>18.8830566</ele>
        <time>2011-07-23T09:07:59Z</time>
      </trkpt>
      <trkpt lat="47.48048" lon="-0.58464">
        <ele>17.4411621</ele>
        <time>2011-07-23T09:08:04Z</time>
      </trkpt>
      <trkpt lat="47.4806" lon="-0.58478">
        <ele>16.9604492</ele>
        <time>2011-07-23T09:08:09Z</time>
      </trkpt>
      <trkpt lat="47.48071" lon="-0.58488">
        <ele>16.4797363</ele>
        <time>2011-07-23T09:08:14Z</time>
      </trkpt>
      <trkpt lat="47.48081" lon="-0.58501">
        <ele>16.9604492</ele>
        <time>2011-07-23T09:08:18Z</time>
      </trkpt>
      <trkpt lat="47.48097" lon="-0.58514">
        <ele>16.4797363</ele>
        <time>2011-07-23T09:08:24Z</time>
      </trkpt>
      <trkpt lat="47.4811" lon="-0.58526">
        <ele>15.9990234</ele>
        <time>2011-07-23T09:08:29Z</time>
      </trkpt>
      <trkpt lat="47.48118" lon="-0.58534">
        <ele>15.9990234</ele>
        <time>2011-07-23T09:08:32Z</time>
      </trkpt>
      <trkpt lat="47.48135" lon="-0.58547">
        <ele>17.9217529</ele>
        <time>2011-07-23T09:08:38Z</time>
      </trkpt>
      <trkpt lat="47.48153" lon="-0.58561">
        <ele>20.3249512</ele>
        <time>2011-07-23T09:08:44Z</time>
      </trkpt>
      <trkpt lat="47.48163" lon="-0.58572">
        <ele>19.8443604</ele>
        <time>2011-07-23T09:08:48Z</time>
      </trkpt>
      <trkpt lat="47.48174" lon="-0.58583">
        <ele>19.8443604</ele>
        <time>2011-07-23T09:08:52Z</time>
      </trkpt>
      <trkpt lat="47.48183" lon="-0.58589">
        <ele>20.3249512</ele>
        <time>2011-07-23T09:08:56Z</time>
      </trkpt>
      <trkpt lat="47.48192" lon="-0.58603">
        <ele>20.8056641</ele>
        <time>2011-07-23T09:09:01Z</time>
      </trkpt>
      <trkpt lat="47.48205" lon="-0.58612">
        <ele>21.286377</ele>
        <time>2011-07-23T09:09:06Z</time>
      </trkpt>
      <trkpt lat="47.48215" lon="-0.58618">
        <ele>20.3249512</ele>
        <time>2011-07-23T09:09:10Z</time>
      </trkpt>
      <trkpt lat="47.48223" lon="-0.58629">
        <ele>20.8056641</ele>
        <time>2011-07-23T09:09:14Z</time>
      </trkpt>
      <trkpt lat="47.48229" lon="-0.58633">
        <ele>20.8056641</ele>
        <time>2011-07-23T09:09:16Z</time>
      </trkpt>
      <trkpt lat="47.48241" lon="-0.58647">
        <ele>21.286377</ele>
        <time>2011-07-23T09:09:21Z</time>
      </trkpt>
      <trkpt lat="47.48247" lon="-0.58657">
        <ele>23.2089844</ele>
        <time>2011-07-23T09:09:25Z</time>
      </trkpt>
      <trkpt lat="47.48251" lon="-0.58671">
        <ele>22.2475586</ele>
        <time>2011-07-23T09:09:29Z</time>
      </trkpt>
      <trkpt lat="47.48255" lon="-0.58692">
        <ele>23.2089844</ele>
        <time>2011-07-23T09:09:34Z</time>
      </trkpt>
      <trkpt lat="47.48259" lon="-0.58706">
        <ele>25.1317139</ele>
        <time>2011-07-23T09:09:38Z</time>
      </trkpt>
      <trkpt lat="47.48262" lon="-0.58726">
        <ele>25.1317139</ele>
        <time>2011-07-23T09:09:43Z</time>
      </trkpt>
      <trkpt lat="47.48266" lon="-0.58751">
        <ele>29.9381104</ele>
        <time>2011-07-23T09:09:49Z</time>
      </trkpt>
      <trkpt lat="47.48269" lon="-0.58759">
        <ele>27.5349121</ele>
        <time>2011-07-23T09:09:51Z</time>
      </trkpt>
      <trkpt lat="47.48265" lon="-0.58776">
        <ele>26.0928955</ele>
        <time>2011-07-23T09:09:55Z</time>
      </trkpt>
      <trkpt lat="47.48264" lon="-0.58791">
        <ele>24.1702881</ele>
        <time>2011-07-23T09:09:59Z</time>
      </trkpt>
      <trkpt lat="47.48269" lon="-0.58808">
        <ele>21.7669678</ele>
        <time>2011-07-23T09:10:03Z</time>
      </trkpt>
      <trkpt lat="47.48272" lon="-0.5882">
        <ele>21.7669678</ele>
        <time>2011-07-23T09:10:06Z</time>
      </trkpt>
      <trkpt lat="47.48281" lon="-0.58848">
        <ele>20.3249512</ele>
        <time>2011-07-23T09:10:13Z</time>
      </trkpt>
      <trkpt lat="47.48283" lon="-0.5887">
        <ele>22.2475586</ele>
        <time>2011-07-23T09:10:18Z</time>
      </trkpt>
      <trkpt lat="47.48284" lon="-0.58892">
        <ele>23.2089844</ele>
        <time>2011-07-23T09:10:23Z</time>
      </trkpt>
      <trkpt lat="47.48285" lon="-0.58908">
        <ele>21.286377</ele>
        <time>2011-07-23T09:10:27Z</time>
      </trkpt>
      <trkpt lat="47.48287" lon="-0.58924">
        <ele>21.7669678</ele>
        <time>2011-07-23T09:10:31Z</time>
      </trkpt>
      <trkpt lat="47.48294" lon="-0.58943">
        <ele>21.7669678</ele>
        <time>2011-07-23T09:10:36Z</time>
      </trkpt>
      <trkpt lat="47.48294" lon="-0.58961">
        <ele>22.2475586</ele>
        <time>2011-07-23T09:10:40Z</time>
      </trkpt>
      <trkpt lat="47.48295" lon="-0.58977">
        <ele>21.7669678</ele>
        <time>2011-07-23T09:10:44Z</time>
      </trkpt>
      <trkpt lat="47.48295" lon="-0.58996">
        <ele>21.286377</ele>
        <time>2011-07-23T09:10:49Z</time>
      </trkpt>
      <trkpt lat="47.48292" lon="-0.59023">
        <ele>22.2475586</ele>
        <time>2011-07-23T09:10:55Z</time>
      </trkpt>
      <trkpt lat="47.48294" lon="-0.59033">
        <ele>22.2475586</ele>
        <time>2011-07-23T09:10:58Z</time>
      </trkpt>
      <trkpt lat="47.48297" lon="-0.59051">
        <ele>23.6895752</ele>
        <time>2011-07-23T09:11:03Z</time>
      </trkpt>
      <trkpt lat="47.483" lon="-0.59066">
        <ele>22.2475586</ele>
        <time>2011-07-23T09:11:07Z</time>
      </trkpt>
      <trkpt lat="47.48304" lon="-0.59078">
        <ele>21.7669678</ele>
        <time>2011-07-23T09:11:11Z</time>
      </trkpt>
      <trkpt lat="47.48305" lon="-0.59086">
        <ele>21.286377</ele>
        <time>2011-07-23T09:11:13Z</time>
      </trkpt>
      <trkpt lat="47.48306" lon="-0.59118">
        <ele>20.3249512</ele>
        <time>2011-07-23T09:11:20Z</time>
      </trkpt>
      <trkpt lat="47.48307" lon="-0.59136">
        <ele>22.2475586</ele>
        <time>2011-07-23T09:11:24Z</time>
      </trkpt>
      <trkpt lat="47.48306" lon="-0.59151">
        <ele>21.7669678</ele>
        <time>2011-07-23T09:11:28Z</time>
      </trkpt>
      <trkpt lat="47.48306" lon="-0.59183">
        <ele>21.286377</ele>
        <time>2011-07-23T09:11:35Z</time>
      </trkpt>
      <trkpt lat="47.48308" lon="-0.592">
        <ele>20.8056641</ele>
        <time>2011-07-23T09:11:39Z</time>
      </trkpt>
      <trkpt lat="47.48309" lon="-0.59204">
        <ele>20.8056641</ele>
        <time>2011-07-23T09:11:40Z</time>
      </trkpt>
      <trkpt lat="47.48315" lon="-0.59224">
        <ele>22.2475586</ele>
        <time>2011-07-23T09:11:45Z</time>
      </trkpt>
      <trkpt lat="47.48317" lon="-0.59242">
        <ele>21.7669678</ele>
        <time>2011-07-23T09:11:49Z</time>
      </trkpt>
      <trkpt lat="47.48318" lon="-0.59246">
        <ele>21.286377</ele>
        <time>2011-07-23T09:11:50Z</time>
      </trkpt>
      <trkpt lat="47.48325" lon="-0.59266">
        <ele>21.7669678</ele>
        <time>2011-07-23T09:11:55Z</time>
      </trkpt>
      <trkpt lat="47.48325" lon="-0.59282">
        <ele>25.1317139</ele>
        <time>2011-07-23T09:11:59Z</time>
      </trkpt>
      <trkpt lat="47.48321" lon="-0.59301">
        <ele>25.6123047</ele>
        <time>2011-07-23T09:12:04Z</time>
      </trkpt>
      <trkpt lat="47.4832" lon="-0.59317">
        <ele>27.5349121</ele>
        <time>2011-07-23T09:12:08Z</time>
      </trkpt>
      <trkpt lat="47.48319" lon="-0.59333">
        <ele>27.5349121</ele>
        <time>2011-07-23T09:12:12Z</time>
      </trkpt>
      <trkpt lat="47.48318" lon="-0.59353">
        <ele>28.4962158</ele>
        <time>2011-07-23T09:12:17Z</time>
      </trkpt>
      <trkpt lat="47.48317" lon="-0.59371">
        <ele>31.8607178</ele>
        <time>2011-07-23T09:12:21Z</time>
      </trkpt>
      <trkpt lat="47.4832" lon="-0.5939">
        <ele>30.8995361</ele>
        <time>2011-07-23T09:12:26Z</time>
      </trkpt>
      <trkpt lat="47.48323" lon="-0.59409">
        <ele>28.0155029</ele>
        <time>2011-07-23T09:12:31Z</time>
      </trkpt>
      <trkpt lat="47.48323" lon="-0.59423">
        <ele>26.0928955</ele>
        <time>2011-07-23T09:12:35Z</time>
      </trkpt>
      <trkpt lat="47.48326" lon="-0.59444">
        <ele>24.1702881</ele>
        <time>2011-07-23T09:12:40Z</time>
      </trkpt>
      <trkpt lat="47.48326" lon="-0.59465">
        <ele>22.7282715</ele>
        <time>2011-07-23T09:12:45Z</time>
      </trkpt>
      <trkpt lat="47.48325" lon="-0.59472">
        <ele>22.2475586</ele>
        <time>2011-07-23T09:12:47Z</time>
      </trkpt>
      <trkpt lat="47.48327" lon="-0.59496">
        <ele>22.7282715</ele>
        <time>2011-07-23T09:12:52Z</time>
      </trkpt>
      <trkpt lat="47.48329" lon="-0.59511">
        <ele>20.3249512</ele>
        <time>2011-07-23T09:12:56Z</time>
      </trkpt>
      <trkpt lat="47.48332" lon="-0.59527">
        <ele>19.8443604</ele>
        <time>2011-07-23T09:13:00Z</time>
      </trkpt>
      <trkpt lat="47.48335" lon="-0.59537">
        <ele>19.3637695</ele>
        <time>2011-07-23T09:13:03Z</time>
      </trkpt>
      <trkpt lat="47.48335" lon="-0.59555">
        <ele>20.3249512</ele>
        <time>2011-07-23T09:13:07Z</time>
      </trkpt>
      <trkpt lat="47.48338" lon="-0.59581">
        <ele>21.7669678</ele>
        <time>2011-07-23T09:13:13Z</time>
      </trkpt>
      <trkpt lat="47.4834" lon="-0.59597">
        <ele>21.286377</ele>
        <time>2011-07-23T09:13:18Z</time>
      </trkpt>
      <trkpt lat="47.48338" lon="-0.5962">
        <ele>21.286377</ele>
        <time>2011-07-23T09:13:23Z</time>
      </trkpt>
      <trkpt lat="47.4834" lon="-0.59648">
        <ele>19.8443604</ele>
        <time>2011-07-23T09:13:28Z</time>
      </trkpt>
      <trkpt lat="47.48341" lon="-0.59669">
        <ele>19.3637695</ele>
        <time>2011-07-23T09:13:33Z</time>
      </trkpt>
      <trkpt lat="47.48341" lon="-0.59683">
        <ele>21.7669678</ele>
        <time>2011-07-23T09:13:36Z</time>
      </trkpt>
      <trkpt lat="47.48348" lon="-0.59704">
        <ele>20.8056641</ele>
        <time>2011-07-23T09:13:41Z</time>
      </trkpt>
      <trkpt lat="47.48349" lon="-0.59728">
        <ele>21.7669678</ele>
        <time>2011-07-23T09:13:46Z</time>
      </trkpt>
      <trkpt lat="47.48346" lon="-0.59747">
        <ele>27.0543213</ele>
        <time>2011-07-23T09:13:50Z</time>
      </trkpt>
      <trkpt lat="47.48344" lon="-0.5977">
        <ele>30.4188232</ele>
        <time>2011-07-23T09:13:55Z</time>
      </trkpt>
      <trkpt lat="47.48345" lon="-0.59788">
        <ele>31.8607178</ele>
        <time>2011-07-23T09:13:59Z</time>
      </trkpt>
      <trkpt lat="47.48347" lon="-0.59803">
        <ele>30.4188232</ele>
        <time>2011-07-23T09:14:03Z</time>
      </trkpt>
      <trkpt lat="47.48347" lon="-0.59823">
        <ele>29.4575195</ele>
        <time>2011-07-23T09:14:08Z</time>
      </trkpt>
      <trkpt lat="47.48346" lon="-0.5984">
        <ele>29.4575195</ele>
        <time>2011-07-23T09:14:12Z</time>
      </trkpt>
      <trkpt lat="47.48343" lon="-0.59858">
        <ele>31.380127</ele>
        <time>2011-07-23T09:14:16Z</time>
      </trkpt>
      <trkpt lat="47.48342" lon="-0.59873">
        <ele>31.380127</ele>
        <time>2011-07-23T09:14:20Z</time>
      </trkpt>
      <trkpt lat="47.48342" lon="-0.59895">
        <ele>30.8995361</ele>
        <time>2011-07-23T09:14:25Z</time>
      </trkpt>
      <trkpt lat="47.48343" lon="-0.59912">
        <ele>30.8995361</ele>
        <time>2011-07-23T09:14:29Z</time>
      </trkpt>
      <trkpt lat="47.48349" lon="-0.59933">
        <ele>27.5349121</ele>
        <time>2011-07-23T09:14:34Z</time>
      </trkpt>
      <trkpt lat="47.48353" lon="-0.5994">
        <ele>26.0928955</ele>
        <time>2011-07-23T09:14:36Z</time>
      </trkpt>
      <trkpt lat="47.48365" lon="-0.59952">
        <ele>24.1702881</ele>
        <time>2011-07-23T09:14:41Z</time>
      </trkpt>
      <trkpt lat="47.48378" lon="-0.5996">
        <ele>22.7282715</ele>
        <time>2011-07-23T09:14:46Z</time>
      </trkpt>
      <trkpt lat="47.48393" lon="-0.59968">
        <ele>22.2475586</ele>
        <time>2011-07-23T09:14:51Z</time>
      </trkpt>
      <trkpt lat="47.48402" lon="-0.59974">
        <ele>22.7282715</ele>
        <time>2011-07-23T09:14:55Z</time>
      </trkpt>
      <trkpt lat="47.48413" lon="-0.59974">
        <ele>21.286377</ele>
        <time>2011-07-23T09:15:01Z</time>
      </trkpt>
      <trkpt lat="47.48427" lon="-0.59967">
        <ele>15.5184326</ele>
        <time>2011-07-23T09:15:07Z</time>
      </trkpt>
      <trkpt lat="47.48443" lon="-0.59961">
        <ele>15.5184326</ele>
        <time>2011-07-23T09:15:13Z</time>
      </trkpt>
      <trkpt lat="47.48453" lon="-0.59957">
        <ele>16.4797363</ele>
        <time>2011-07-23T09:15:17Z</time>
      </trkpt>
      <trkpt lat="47.48461" lon="-0.59959">
        <ele>15.5184326</ele>
        <time>2011-07-23T09:15:21Z</time>
      </trkpt>
      <trkpt lat="47.48478" lon="-0.59957">
        <ele>14.076416</ele>
        <time>2011-07-23T09:15:27Z</time>
      </trkpt>
      <trkpt lat="47.48493" lon="-0.59956">
        <ele>12.6343994</ele>
        <time>2011-07-23T09:15:32Z</time>
      </trkpt>
      <trkpt lat="47.48506" lon="-0.59956">
        <ele>13.5958252</ele>
        <time>2011-07-23T09:15:37Z</time>
      </trkpt>
      <trkpt lat="47.48514" lon="-0.59954">
        <ele>16.4797363</ele>
        <time>2011-07-23T09:15:42Z</time>
      </trkpt>
      <trkpt lat="47.4852" lon="-0.59951">
        <ele>18.8830566</ele>
        <time>2011-07-23T09:15:45Z</time>
      </trkpt>
      <trkpt lat="47.48529" lon="-0.59948">
        <ele>23.2089844</ele>
        <time>2011-07-23T09:15:51Z</time>
      </trkpt>
      <trkpt lat="47.48539" lon="-0.5995">
        <ele>23.6895752</ele>
        <time>2011-07-23T09:15:55Z</time>
      </trkpt>
      <trkpt lat="47.48547" lon="-0.59951">
        <ele>23.6895752</ele>
        <time>2011-07-23T09:15:58Z</time>
      </trkpt>
      <trkpt lat="47.48552" lon="-0.59952">
        <ele>24.1702881</ele>
        <time>2011-07-23T09:16:00Z</time>
      </trkpt>
      <trkpt lat="47.48565" lon="-0.59945">
        <ele>26.0928955</ele>
        <time>2011-07-23T09:16:06Z</time>
      </trkpt>
      <trkpt lat="47.48574" lon="-0.59946">
        <ele>26.5736084</ele>
        <time>2011-07-23T09:16:10Z</time>
      </trkpt>
      <trkpt lat="47.4858" lon="-0.59947">
        <ele>26.5736084</ele>
        <time>2011-07-23T09:16:12Z</time>
      </trkpt>
      <trkpt lat="47.48589" lon="-0.59956">
        <ele>27.5349121</ele>
        <time>2011-07-23T09:16:16Z</time>
      </trkpt>
      <trkpt lat="47.48595" lon="-0.59951">
        <ele>26.5736084</ele>
        <time>2011-07-23T09:16:19Z</time>
      </trkpt>
      <trkpt lat="47.48596" lon="-0.59948">
        <ele>27.0543213</ele>
        <time>2011-07-23T09:16:20Z</time>
      </trkpt>
      <trkpt lat="47.48601" lon="-0.59938">
        <ele>24.651001</ele>
        <time>2011-07-23T09:16:24Z</time>
      </trkpt>
      <trkpt lat="47.48611" lon="-0.59945">
        <ele>21.7669678</ele>
        <time>2011-07-23T09:16:29Z</time>
      </trkpt>
      <trkpt lat="47.4862" lon="-0.5996">
        <ele>21.286377</ele>
        <time>2011-07-23T09:16:33Z</time>
      </trkpt>
      <trkpt lat="47.48625" lon="-0.59976">
        <ele>21.286377</ele>
        <time>2011-07-23T09:16:37Z</time>
      </trkpt>
      <trkpt lat="47.48635" lon="-0.59988">
        <ele>20.3249512</ele>
        <time>2011-07-23T09:16:41Z</time>
      </trkpt>
      <trkpt lat="47.48647" lon="-0.60007">
        <ele>20.3249512</ele>
        <time>2011-07-23T09:16:47Z</time>
      </trkpt>
      <trkpt lat="47.48655" lon="-0.60017">
        <ele>18.4023438</ele>
        <time>2011-07-23T09:16:51Z</time>
      </trkpt>
      <trkpt lat="47.48664" lon="-0.6004">
        <ele>19.3637695</ele>
        <time>2011-07-23T09:16:57Z</time>
      </trkpt>
      <trkpt lat="47.48665" lon="-0.60042">
        <ele>18.4023438</ele>
        <time>2011-07-23T09:16:58Z</time>
      </trkpt>
      <trkpt lat="47.48667" lon="-0.60068">
        <ele>26.5736084</ele>
        <time>2011-07-23T09:17:04Z</time>
      </trkpt>
      <trkpt lat="47.48668" lon="-0.60075">
        <ele>28.9769287</ele>
        <time>2011-07-23T09:17:06Z</time>
      </trkpt>
      <trkpt lat="47.48666" lon="-0.60104">
        <ele>34.2641602</ele>
        <time>2011-07-23T09:17:12Z</time>
      </trkpt>
      <trkpt lat="47.48666" lon="-0.60122">
        <ele>38.109375</ele>
        <time>2011-07-23T09:17:16Z</time>
      </trkpt>
      <trkpt lat="47.48667" lon="-0.60142">
        <ele>38.5900879</ele>
        <time>2011-07-23T09:17:21Z</time>
      </trkpt>
      <trkpt lat="47.48667" lon="-0.60159">
        <ele>40.5128174</ele>
        <time>2011-07-23T09:17:25Z</time>
      </trkpt>
      <trkpt lat="47.48669" lon="-0.60182">
        <ele>39.0706787</ele>
        <time>2011-07-23T09:17:31Z</time>
      </trkpt>
      <trkpt lat="47.4867" lon="-0.60199">
        <ele>36.6674805</ele>
        <time>2011-07-23T09:17:35Z</time>
      </trkpt>
      <trkpt lat="47.48668" lon="-0.60218">
        <ele>38.5900879</ele>
        <time>2011-07-23T09:17:39Z</time>
      </trkpt>
      <trkpt lat="47.48672" lon="-0.60232">
        <ele>36.1867676</ele>
        <time>2011-07-23T09:17:43Z</time>
      </trkpt>
      <trkpt lat="47.48673" lon="-0.60255">
        <ele>37.6286621</ele>
        <time>2011-07-23T09:17:48Z</time>
      </trkpt>
      <trkpt lat="47.48673" lon="-0.6026">
        <ele>38.109375</ele>
        <time>2011-07-23T09:17:49Z</time>
      </trkpt>
      <trkpt lat="47.48672" lon="-0.60277">
        <ele>38.109375</ele>
        <time>2011-07-23T09:17:53Z</time>
      </trkpt>
      <trkpt lat="47.48674" lon="-0.60299">
        <ele>37.1480713</ele>
        <time>2011-07-23T09:17:59Z</time>
      </trkpt>
      <trkpt lat="47.48678" lon="-0.60311">
        <ele>35.2254639</ele>
        <time>2011-07-23T09:18:03Z</time>
      </trkpt>
      <trkpt lat="47.48679" lon="-0.60326">
        <ele>33.7834473</ele>
        <time>2011-07-23T09:18:07Z</time>
      </trkpt>
      <trkpt lat="47.48678" lon="-0.60345">
        <ele>31.8607178</ele>
        <time>2011-07-23T09:18:12Z</time>
      </trkpt>
      <trkpt lat="47.48676" lon="-0.60363">
        <ele>31.380127</ele>
        <time>2011-07-23T09:18:16Z</time>
      </trkpt>
      <trkpt lat="47.48677" lon="-0.60385">
        <ele>29.9381104</ele>
        <time>2011-07-23T09:18:21Z</time>
      </trkpt>
      <trkpt lat="47.48678" lon="-0.6039">
        <ele>29.9381104</ele>
        <time>2011-07-23T09:18:22Z</time>
      </trkpt>
      <trkpt lat="47.48676" lon="-0.60417">
        <ele>28.4962158</ele>
        <time>2011-07-23T09:18:29Z</time>
      </trkpt>
      <trkpt lat="47.48681" lon="-0.60432">
        <ele>26.0928955</ele>
        <time>2011-07-23T09:18:33Z</time>
      </trkpt>
      <trkpt lat="47.48687" lon="-0.6046">
        <ele>24.651001</ele>
        <time>2011-07-23T09:18:39Z</time>
      </trkpt>
      <trkpt lat="47.48693" lon="-0.60474">
        <ele>24.651001</ele>
        <time>2011-07-23T09:18:43Z</time>
      </trkpt>
      <trkpt lat="47.48703" lon="-0.6049">
        <ele>23.2089844</ele>
        <time>2011-07-23T09:18:48Z</time>
      </trkpt>
      <trkpt lat="47.48711" lon="-0.6051">
        <ele>25.6123047</ele>
        <time>2011-07-23T09:18:54Z</time>
      </trkpt>
      <trkpt lat="47.48714" lon="-0.60531">
        <ele>26.5736084</ele>
        <time>2011-07-23T09:18:59Z</time>
      </trkpt>
      <trkpt lat="47.4872" lon="-0.60543">
        <ele>27.0543213</ele>
        <time>2011-07-23T09:19:03Z</time>
      </trkpt>
      <trkpt lat="47.4873" lon="-0.60566">
        <ele>24.1702881</ele>
        <time>2011-07-23T09:19:09Z</time>
      </trkpt>
      <trkpt lat="47.48733" lon="-0.60585">
        <ele>24.651001</ele>
        <time>2011-07-23T09:19:13Z</time>
      </trkpt>
      <trkpt lat="47.4874" lon="-0.60598">
        <ele>24.1702881</ele>
        <time>2011-07-23T09:19:17Z</time>
      </trkpt>
      <trkpt lat="47.48746" lon="-0.60611">
        <ele>24.1702881</ele>
        <time>2011-07-23T09:19:21Z</time>
      </trkpt>
      <trkpt lat="47.48754" lon="-0.60628">
        <ele>23.2089844</ele>
        <time>2011-07-23T09:19:26Z</time>
      </trkpt>
      <trkpt lat="47.4876" lon="-0.60646">
        <ele>23.6895752</ele>
        <time>2011-07-23T09:19:30Z</time>
      </trkpt>
      <trkpt lat="47.4877" lon="-0.60667">
        <ele>22.7282715</ele>
        <time>2011-07-23T09:19:35Z</time>
      </trkpt>
      <trkpt lat="47.48774" lon="-0.60671">
        <ele>23.2089844</ele>
        <time>2011-07-23T09:19:37Z</time>
      </trkpt>
      <trkpt lat="47.48786" lon="-0.60682">
        <ele>21.7669678</ele>
        <time>2011-07-23T09:19:42Z</time>
      </trkpt>
      <trkpt lat="47.48802" lon="-0.60689">
        <ele>17.9217529</ele>
        <time>2011-07-23T09:19:47Z</time>
      </trkpt>
      <trkpt lat="47.48818" lon="-0.60691">
        <ele>13.5958252</ele>
        <time>2011-07-23T09:19:52Z</time>
      </trkpt>
      <trkpt lat="47.4883" lon="-0.60694">
        <ele>11.6732178</ele>
        <time>2011-07-23T09:19:56Z</time>
      </trkpt>
      <trkpt lat="47.48842" lon="-0.6069">
        <ele>9.2698975</ele>
        <time>2011-07-23T09:20:00Z</time>
      </trkpt>
      <trkpt lat="47.48843" lon="-0.60688">
        <ele>8.7891846</ele>
        <time>2011-07-23T09:20:01Z</time>
      </trkpt>
      <trkpt lat="47.48852" lon="-0.60669">
        <ele>6.3858643</ele>
        <time>2011-07-23T09:20:07Z</time>
      </trkpt>
      <trkpt lat="47.4886" lon="-0.60654">
        <ele>6.8664551</ele>
        <time>2011-07-23T09:20:11Z</time>
      </trkpt>
      <trkpt lat="47.48868" lon="-0.60638">
        <ele>8.3085938</ele>
        <time>2011-07-23T09:20:15Z</time>
      </trkpt>
      <trkpt lat="47.4888" lon="-0.60622">
        <ele>10.711792</ele>
        <time>2011-07-23T09:20:20Z</time>
      </trkpt>
      <trkpt lat="47.4889" lon="-0.6061">
        <ele>11.1925049</ele>
        <time>2011-07-23T09:20:25Z</time>
      </trkpt>
      <trkpt lat="47.489" lon="-0.60601">
        <ele>11.6732178</ele>
        <time>2011-07-23T09:20:30Z</time>
      </trkpt>
      <trkpt lat="47.48902" lon="-0.60601">
        <ele>12.1538086</ele>
        <time>2011-07-23T09:20:31Z</time>
      </trkpt>
      <trkpt lat="47.48908" lon="-0.60616">
        <ele>13.1151123</ele>
        <time>2011-07-23T09:20:36Z</time>
      </trkpt>
      <trkpt lat="47.48906" lon="-0.60635">
        <ele>14.5570068</ele>
        <time>2011-07-23T09:20:40Z</time>
      </trkpt>
      <trkpt lat="47.48912" lon="-0.60664">
        <ele>15.0377197</ele>
        <time>2011-07-23T09:20:47Z</time>
      </trkpt>
      <trkpt lat="47.48919" lon="-0.60687">
        <ele>19.8443604</ele>
        <time>2011-07-23T09:20:52Z</time>
      </trkpt>
      <trkpt lat="47.48922" lon="-0.607">
        <ele>20.3249512</ele>
        <time>2011-07-23T09:20:55Z</time>
      </trkpt>
      <trkpt lat="47.48916" lon="-0.60713">
        <ele>18.8830566</ele>
        <time>2011-07-23T09:21:00Z</time>
      </trkpt>
      <trkpt lat="47.48912" lon="-0.60716">
        <ele>18.8830566</ele>
        <time>2011-07-23T09:21:02Z</time>
      </trkpt>
      <trkpt lat="47.48899" lon="-0.60722">
        <ele>18.8830566</ele>
        <time>2011-07-23T09:21:07Z</time>
      </trkpt>
      <trkpt lat="47.48887" lon="-0.60725">
        <ele>19.3637695</ele>
        <time>2011-07-23T09:21:11Z</time>
      </trkpt>
      <trkpt lat="47.48875" lon="-0.60734">
        <ele>21.286377</ele>
        <time>2011-07-23T09:21:15Z</time>
      </trkpt>
      <trkpt lat="47.48865" lon="-0.60745">
        <ele>22.7282715</ele>
        <time>2011-07-23T09:21:19Z</time>
      </trkpt>
      <trkpt lat="47.48853" lon="-0.60762">
        <ele>22.2475586</ele>
        <time>2011-07-23T09:21:25Z</time>
      </trkpt>
      <trkpt lat="47.48844" lon="-0.60776">
        <ele>20.8056641</ele>
        <time>2011-07-23T09:21:29Z</time>
      </trkpt>
      <trkpt lat="47.48835" lon="-0.60796">
        <ele>22.7282715</ele>
        <time>2011-07-23T09:21:34Z</time>
      </trkpt>
      <trkpt lat="47.48827" lon="-0.60811">
        <ele>23.2089844</ele>
        <time>2011-07-23T09:21:39Z</time>
      </trkpt>
      <trkpt lat="47.4882" lon="-0.60821">
        <ele>23.2089844</ele>
        <time>2011-07-23T09:21:43Z</time>
      </trkpt>
      <trkpt lat="47.48808" lon="-0.60825">
        <ele>23.6895752</ele>
        <time>2011-07-23T09:21:47Z</time>
      </trkpt>
      <trkpt lat="47.48794" lon="-0.60829">
        <ele>22.7282715</ele>
        <time>2011-07-23T09:21:51Z</time>
      </trkpt>
      <trkpt lat="47.48783" lon="-0.60822">
        <ele>26.0928955</ele>
        <time>2011-07-23T09:21:55Z</time>
      </trkpt>
      <trkpt lat="47.48774" lon="-0.60807">
        <ele>33.3028564</ele>
        <time>2011-07-23T09:22:01Z</time>
      </trkpt>
      <trkpt lat="47.48769" lon="-0.608">
        <ele>34.744873</ele>
        <time>2011-07-23T09:22:04Z</time>
      </trkpt>
      <trkpt lat="47.48755" lon="-0.60796">
        <ele>33.7834473</ele>
        <time>2011-07-23T09:22:09Z</time>
      </trkpt>
      <trkpt lat="47.48742" lon="-0.60785">
        <ele>33.7834473</ele>
        <time>2011-07-23T09:22:14Z</time>
      </trkpt>
      <trkpt lat="47.48729" lon="-0.60772">
        <ele>30.8995361</ele>
        <time>2011-07-23T09:22:19Z</time>
      </trkpt>
      <trkpt lat="47.48721" lon="-0.60762">
        <ele>32.8222656</ele>
        <time>2011-07-23T09:22:23Z</time>
      </trkpt>
      <trkpt lat="47.48718" lon="-0.60759">
        <ele>34.2641602</ele>
        <time>2011-07-23T09:22:24Z</time>
      </trkpt>
      <trkpt lat="47.4871" lon="-0.60738">
        <ele>37.6286621</ele>
        <time>2011-07-23T09:22:30Z</time>
      </trkpt>
      <trkpt lat="47.48702" lon="-0.60713">
        <ele>34.2641602</ele>
        <time>2011-07-23T09:22:36Z</time>
      </trkpt>
      <trkpt lat="47.48696" lon="-0.60698">
        <ele>36.1867676</ele>
        <time>2011-07-23T09:22:40Z</time>
      </trkpt>
      <trkpt lat="47.48688" lon="-0.60681">
        <ele>35.2254639</ele>
        <time>2011-07-23T09:22:44Z</time>
      </trkpt>
      <trkpt lat="47.48682" lon="-0.60661">
        <ele>35.7060547</ele>
        <time>2011-07-23T09:22:49Z</time>
      </trkpt>
      <trkpt lat="47.48678" lon="-0.60648">
        <ele>34.744873</ele>
        <time>2011-07-23T09:22:53Z</time>
      </trkpt>
      <trkpt lat="47.4867" lon="-0.6063">
        <ele>37.6286621</ele>
        <time>2011-07-23T09:22:58Z</time>
      </trkpt>
      <trkpt lat="47.48662" lon="-0.60614">
        <ele>34.744873</ele>
        <time>2011-07-23T09:23:02Z</time>
      </trkpt>
      <trkpt lat="47.48662" lon="-0.60611">
        <ele>36.1867676</ele>
        <time>2011-07-23T09:23:03Z</time>
      </trkpt>
      <trkpt lat="47.48652" lon="-0.60589">
        <ele>32.3415527</ele>
        <time>2011-07-23T09:23:09Z</time>
      </trkpt>
      <trkpt lat="47.48651" lon="-0.60585">
        <ele>32.3415527</ele>
        <time>2011-07-23T09:23:10Z</time>
      </trkpt>
      <trkpt lat="47.48645" lon="-0.60565">
        <ele>32.8222656</ele>
        <time>2011-07-23T09:23:15Z</time>
      </trkpt>
      <trkpt lat="47.48636" lon="-0.60542">
        <ele>30.4188232</ele>
        <time>2011-07-23T09:23:21Z</time>
      </trkpt>
      <trkpt lat="47.48629" lon="-0.60527">
        <ele>29.4575195</ele>
        <time>2011-07-23T09:23:25Z</time>
      </trkpt>
      <trkpt lat="47.48624" lon="-0.60513">
        <ele>27.5349121</ele>
        <time>2011-07-23T09:23:29Z</time>
      </trkpt>
      <trkpt lat="47.48619" lon="-0.60492">
        <ele>29.9381104</ele>
        <time>2011-07-23T09:23:34Z</time>
      </trkpt>
      <trkpt lat="47.48614" lon="-0.60478">
        <ele>29.4575195</ele>
        <time>2011-07-23T09:23:38Z</time>
      </trkpt>
      <trkpt lat="47.48609" lon="-0.60459">
        <ele>29.4575195</ele>
        <time>2011-07-23T09:23:43Z</time>
      </trkpt>
      <trkpt lat="47.48608" lon="-0.6044">
        <ele>30.4188232</ele>
        <time>2011-07-23T09:23:48Z</time>
      </trkpt>
      <trkpt lat="47.48604" lon="-0.60425">
        <ele>29.9381104</ele>
        <time>2011-07-23T09:23:52Z</time>
      </trkpt>
      <trkpt lat="47.48601" lon="-0.60405">
        <ele>36.1867676</ele>
        <time>2011-07-23T09:23:57Z</time>
      </trkpt>
      <trkpt lat="47.48597" lon="-0.60394">
        <ele>37.6286621</ele>
        <time>2011-07-23T09:24:00Z</time>
      </trkpt>
      <trkpt lat="47.48592" lon="-0.60369">
        <ele>39.5512695</ele>
        <time>2011-07-23T09:24:06Z</time>
      </trkpt>
      <trkpt lat="47.48588" lon="-0.60355">
        <ele>40.0321045</ele>
        <time>2011-07-23T09:24:10Z</time>
      </trkpt>
      <trkpt lat="47.48585" lon="-0.60342">
        <ele>40.0321045</ele>
        <time>2011-07-23T09:24:14Z</time>
      </trkpt>
      <trkpt lat="47.48584" lon="-0.60332">
        <ele>41.9547119</ele>
        <time>2011-07-23T09:24:17Z</time>
      </trkpt>
      <trkpt lat="47.48583" lon="-0.60328">
        <ele>42.4354248</ele>
        <time>2011-07-23T09:24:18Z</time>
      </trkpt>
      <trkpt lat="47.48582" lon="-0.60316">
        <ele>45.7999268</ele>
        <time>2011-07-23T09:24:22Z</time>
      </trkpt>
      <trkpt lat="47.4858" lon="-0.60297">
        <ele>47.7225342</ele>
        <time>2011-07-23T09:24:28Z</time>
      </trkpt>
      <trkpt lat="47.48585" lon="-0.60282">
        <ele>43.8773193</ele>
        <time>2011-07-23T09:24:33Z</time>
      </trkpt>
      <trkpt lat="47.48589" lon="-0.60267">
        <ele>40.5128174</ele>
        <time>2011-07-23T09:24:37Z</time>
      </trkpt>
      <trkpt lat="47.48595" lon="-0.60253">
        <ele>38.5900879</ele>
        <time>2011-07-23T09:24:41Z</time>
      </trkpt>
      <trkpt lat="47.48601" lon="-0.60241">
        <ele>35.2254639</ele>
        <time>2011-07-23T09:24:45Z</time>
      </trkpt>
      <trkpt lat="47.48608" lon="-0.60224">
        <ele>32.3415527</ele>
        <time>2011-07-23T09:24:50Z</time>
      </trkpt>
      <trkpt lat="47.4861" lon="-0.60202">
        <ele>28.9769287</ele>
        <time>2011-07-23T09:24:55Z</time>
      </trkpt>
      <trkpt lat="47.48612" lon="-0.60197">
        <ele>28.0155029</ele>
        <time>2011-07-23T09:24:56Z</time>
      </trkpt>
      <trkpt lat="47.48615" lon="-0.60187">
        <ele>27.0543213</ele>
        <time>2011-07-23T09:24:58Z</time>
      </trkpt>
      <trkpt lat="47.48614" lon="-0.60162">
        <ele>25.6123047</ele>
        <time>2011-07-23T09:25:04Z</time>
      </trkpt>
      <trkpt lat="47.48614" lon="-0.6014">
        <ele>24.1702881</ele>
        <time>2011-07-23T09:25:09Z</time>
      </trkpt>
      <trkpt lat="47.4861" lon="-0.60121">
        <ele>25.6123047</ele>
        <time>2011-07-23T09:25:14Z</time>
      </trkpt>
      <trkpt lat="47.48609" lon="-0.601">
        <ele>24.651001</ele>
        <time>2011-07-23T09:25:19Z</time>
      </trkpt>
      <trkpt lat="47.48605" lon="-0.6008">
        <ele>24.651001</ele>
        <time>2011-07-23T09:25:24Z</time>
      </trkpt>
      <trkpt lat="47.48599" lon="-0.60063">
        <ele>26.0928955</ele>
        <time>2011-07-23T09:25:28Z</time>
      </trkpt>
      <trkpt lat="47.48592" lon="-0.60044">
        <ele>27.5349121</ele>
        <time>2011-07-23T09:25:33Z</time>
      </trkpt>
      <trkpt lat="47.48582" lon="-0.6004">
        <ele>27.0543213</ele>
        <time>2011-07-23T09:25:37Z</time>
      </trkpt>
      <trkpt lat="47.48568" lon="-0.60043">
        <ele>25.1317139</ele>
        <time>2011-07-23T09:25:42Z</time>
      </trkpt>
      <trkpt lat="47.48557" lon="-0.60049">
        <ele>26.0928955</ele>
        <time>2011-07-23T09:25:46Z</time>
      </trkpt>
      <trkpt lat="47.48549" lon="-0.60053">
        <ele>26.0928955</ele>
        <time>2011-07-23T09:25:49Z</time>
      </trkpt>
      <trkpt lat="47.48543" lon="-0.6006">
        <ele>25.6123047</ele>
        <time>2011-07-23T09:25:52Z</time>
      </trkpt>
      <trkpt lat="47.48532" lon="-0.60076">
        <ele>24.651001</ele>
        <time>2011-07-23T09:25:57Z</time>
      </trkpt>
      <trkpt lat="47.4852" lon="-0.60097">
        <ele>23.6895752</ele>
        <time>2011-07-23T09:26:03Z</time>
      </trkpt>
      <trkpt lat="47.48514" lon="-0.60109">
        <ele>26.0928955</ele>
        <time>2011-07-23T09:26:07Z</time>
      </trkpt>
      <trkpt lat="47.48512" lon="-0.60111">
        <ele>27.5349121</ele>
        <time>2011-07-23T09:26:08Z</time>
      </trkpt>
      <trkpt lat="47.48502" lon="-0.60115">
        <ele>32.3415527</ele>
        <time>2011-07-23T09:26:12Z</time>
      </trkpt>
      <trkpt lat="47.48487" lon="-0.60113">
        <ele>40.0321045</ele>
        <time>2011-07-23T09:26:18Z</time>
      </trkpt>
      <trkpt lat="47.48481" lon="-0.60112">
        <ele>40.0321045</ele>
        <time>2011-07-23T09:26:20Z</time>
      </trkpt>
      <trkpt lat="47.48467" lon="-0.6011">
        <ele>39.0706787</ele>
        <time>2011-07-23T09:26:25Z</time>
      </trkpt>
      <trkpt lat="47.48456" lon="-0.6011">
        <ele>37.6286621</ele>
        <time>2011-07-23T09:26:30Z</time>
      </trkpt>
      <trkpt lat="47.4844" lon="-0.6011">
        <ele>40.5128174</ele>
        <time>2011-07-23T09:26:35Z</time>
      </trkpt>
      <trkpt lat="47.48428" lon="-0.60108">
        <ele>41.473999</ele>
        <time>2011-07-23T09:26:39Z</time>
      </trkpt>
      <trkpt lat="47.4842" lon="-0.60108">
        <ele>41.473999</ele>
        <time>2011-07-23T09:26:42Z</time>
      </trkpt>
      <trkpt lat="47.48417" lon="-0.60108">
        <ele>41.9547119</ele>
        <time>2011-07-23T09:26:43Z</time>
      </trkpt>
      <trkpt lat="47.48408" lon="-0.60105">
        <ele>42.4354248</ele>
        <time>2011-07-23T09:26:47Z</time>
      </trkpt>
      <trkpt lat="47.48396" lon="-0.60106">
        <ele>38.5900879</ele>
        <time>2011-07-23T09:26:51Z</time>
      </trkpt>
      <trkpt lat="47.48379" lon="-0.6011">
        <ele>37.1480713</ele>
        <time>2011-07-23T09:26:56Z</time>
      </trkpt>
      <trkpt lat="47.48369" lon="-0.60108">
        <ele>35.7060547</ele>
        <time>2011-07-23T09:27:00Z</time>
      </trkpt>
      <trkpt lat="47.48363" lon="-0.60091">
        <ele>39.0706787</ele>
        <time>2011-07-23T09:27:05Z</time>
      </trkpt>
      <trkpt lat="47.48358" lon="-0.60077">
        <ele>42.4354248</ele>
        <time>2011-07-23T09:27:09Z</time>
      </trkpt>
      <trkpt lat="47.48357" lon="-0.60073">
        <ele>43.3966064</ele>
        <time>2011-07-23T09:27:10Z</time>
      </trkpt>
      <trkpt lat="47.4835" lon="-0.60059">
        <ele>45.7999268</ele>
        <time>2011-07-23T09:27:15Z</time>
      </trkpt>
      <trkpt lat="47.48344" lon="-0.6004">
        <ele>45.3192139</ele>
        <time>2011-07-23T09:27:20Z</time>
      </trkpt>
      <trkpt lat="47.48342" lon="-0.60036">
        <ele>44.3580322</ele>
        <time>2011-07-23T09:27:21Z</time>
      </trkpt>
      <trkpt lat="47.48331" lon="-0.60019">
        <ele>40.9934082</ele>
        <time>2011-07-23T09:27:26Z</time>
      </trkpt>
      <trkpt lat="47.48322" lon="-0.6">
        <ele>37.1480713</ele>
        <time>2011-07-23T09:27:31Z</time>
      </trkpt>
      <trkpt lat="47.48318" lon="-0.5998">
        <ele>32.3415527</ele>
        <time>2011-07-23T09:27:36Z</time>
      </trkpt>
      <trkpt lat="47.48317" lon="-0.59961">
        <ele>28.4962158</ele>
        <time>2011-07-23T09:27:41Z</time>
      </trkpt>
      <trkpt lat="47.48312" lon="-0.59941">
        <ele>27.0543213</ele>
        <time>2011-07-23T09:27:45Z</time>
      </trkpt>
      <trkpt lat="47.4831" lon="-0.59923">
        <ele>25.1317139</ele>
        <time>2011-07-23T09:27:49Z</time>
      </trkpt>
      <trkpt lat="47.48307" lon="-0.59895">
        <ele>24.1702881</ele>
        <time>2011-07-23T09:27:55Z</time>
      </trkpt>
      <trkpt lat="47.48303" lon="-0.5987">
        <ele>21.286377</ele>
        <time>2011-07-23T09:28:01Z</time>
      </trkpt>
      <trkpt lat="47.48299" lon="-0.5985">
        <ele>21.286377</ele>
        <time>2011-07-23T09:28:05Z</time>
      </trkpt>
      <trkpt lat="47.48296" lon="-0.59834">
        <ele>20.8056641</ele>
        <time>2011-07-23T09:28:09Z</time>
      </trkpt>
      <trkpt lat="47.48293" lon="-0.59819">
        <ele>20.8056641</ele>
        <time>2011-07-23T09:28:14Z</time>
      </trkpt>
      <trkpt lat="47.4829" lon="-0.59798">
        <ele>19.3637695</ele>
        <time>2011-07-23T09:28:19Z</time>
      </trkpt>
      <trkpt lat="47.48289" lon="-0.59782">
        <ele>20.3249512</ele>
        <time>2011-07-23T09:28:23Z</time>
      </trkpt>
      <trkpt lat="47.48288" lon="-0.59779">
        <ele>19.3637695</ele>
        <time>2011-07-23T09:28:24Z</time>
      </trkpt>
      <trkpt lat="47.48287" lon="-0.59753">
        <ele>20.8056641</ele>
        <time>2011-07-23T09:28:30Z</time>
      </trkpt>
      <trkpt lat="47.48283" lon="-0.59726">
        <ele>22.7282715</ele>
        <time>2011-07-23T09:28:36Z</time>
      </trkpt>
      <trkpt lat="47.48281" lon="-0.59702">
        <ele>25.6123047</ele>
        <time>2011-07-23T09:28:41Z</time>
      </trkpt>
      <trkpt lat="47.4828" lon="-0.59688">
        <ele>25.1317139</ele>
        <time>2011-07-23T09:28:45Z</time>
      </trkpt>
      <trkpt lat="47.48277" lon="-0.59666">
        <ele>24.1702881</ele>
        <time>2011-07-23T09:28:50Z</time>
      </trkpt>
      <trkpt lat="47.48275" lon="-0.59644">
        <ele>23.2089844</ele>
        <time>2011-07-23T09:28:55Z</time>
      </trkpt>
      <trkpt lat="47.48275" lon="-0.59625">
        <ele>25.6123047</ele>
        <time>2011-07-23T09:28:59Z</time>
      </trkpt>
      <trkpt lat="47.48274" lon="-0.59617">
        <ele>26.0928955</ele>
        <time>2011-07-23T09:29:01Z</time>
      </trkpt>
      <trkpt lat="47.48268" lon="-0.59596">
        <ele>26.0928955</ele>
        <time>2011-07-23T09:29:07Z</time>
      </trkpt>
      <trkpt lat="47.48262" lon="-0.59576">
        <ele>27.0543213</ele>
        <time>2011-07-23T09:29:12Z</time>
      </trkpt>
      <trkpt lat="47.4826" lon="-0.59557">
        <ele>28.0155029</ele>
        <time>2011-07-23T09:29:17Z</time>
      </trkpt>
      <trkpt lat="47.48261" lon="-0.5954">
        <ele>28.4962158</ele>
        <time>2011-07-23T09:29:21Z</time>
      </trkpt>
      <trkpt lat="47.48261" lon="-0.59526">
        <ele>26.0928955</ele>
        <time>2011-07-23T09:29:25Z</time>
      </trkpt>
      <trkpt lat="47.48261" lon="-0.59501">
        <ele>25.6123047</ele>
        <time>2011-07-23T09:29:31Z</time>
      </trkpt>
      <trkpt lat="47.48259" lon="-0.59484">
        <ele>28.0155029</ele>
        <time>2011-07-23T09:29:36Z</time>
      </trkpt>
      <trkpt lat="47.48257" lon="-0.59469">
        <ele>30.8995361</ele>
        <time>2011-07-23T09:29:40Z</time>
      </trkpt>
      <trkpt lat="47.48256" lon="-0.59452">
        <ele>33.7834473</ele>
        <time>2011-07-23T09:29:45Z</time>
      </trkpt>
      <trkpt lat="47.48253" lon="-0.59432">
        <ele>34.744873</ele>
        <time>2011-07-23T09:29:50Z</time>
      </trkpt>
      <trkpt lat="47.48249" lon="-0.59411">
        <ele>32.8222656</ele>
        <time>2011-07-23T09:29:55Z</time>
      </trkpt>
      <trkpt lat="47.48246" lon="-0.59386">
        <ele>27.5349121</ele>
        <time>2011-07-23T09:30:01Z</time>
      </trkpt>
      <trkpt lat="47.4824" lon="-0.59365">
        <ele>22.7282715</ele>
        <time>2011-07-23T09:30:06Z</time>
      </trkpt>
      <trkpt lat="47.48235" lon="-0.5935">
        <ele>22.2475586</ele>
        <time>2011-07-23T09:30:10Z</time>
      </trkpt>
      <trkpt lat="47.48228" lon="-0.59335">
        <ele>20.3249512</ele>
        <time>2011-07-23T09:30:15Z</time>
      </trkpt>
      <trkpt lat="47.48223" lon="-0.59319">
        <ele>21.7669678</ele>
        <time>2011-07-23T09:30:20Z</time>
      </trkpt>
      <trkpt lat="47.4822" lon="-0.59302">
        <ele>19.8443604</ele>
        <time>2011-07-23T09:30:24Z</time>
      </trkpt>
      <trkpt lat="47.48222" lon="-0.5928">
        <ele>21.286377</ele>
        <time>2011-07-23T09:30:29Z</time>
      </trkpt>
      <trkpt lat="47.48222" lon="-0.59276">
        <ele>21.7669678</ele>
        <time>2011-07-23T09:30:30Z</time>
      </trkpt>
      <trkpt lat="47.48225" lon="-0.59257">
        <ele>22.7282715</ele>
        <time>2011-07-23T09:30:35Z</time>
      </trkpt>
      <trkpt lat="47.48229" lon="-0.59246">
        <ele>23.2089844</ele>
        <time>2011-07-23T09:30:38Z</time>
      </trkpt>
      <trkpt lat="47.48228" lon="-0.59225">
        <ele>22.2475586</ele>
        <time>2011-07-23T09:30:43Z</time>
      </trkpt>
      <trkpt lat="47.48227" lon="-0.59222">
        <ele>22.2475586</ele>
        <time>2011-07-23T09:30:44Z</time>
      </trkpt>
      <trkpt lat="47.48229" lon="-0.59205">
        <ele>23.2089844</ele>
        <time>2011-07-23T09:30:49Z</time>
      </trkpt>
      <trkpt lat="47.48229" lon="-0.59196">
        <ele>22.2475586</ele>
        <time>2011-07-23T09:30:51Z</time>
      </trkpt>
      <trkpt lat="47.48229" lon="-0.59185">
        <ele>21.286377</ele>
        <time>2011-07-23T09:30:54Z</time>
      </trkpt>
      <trkpt lat="47.48229" lon="-0.59164">
        <ele>21.7669678</ele>
        <time>2011-07-23T09:30:59Z</time>
      </trkpt>
      <trkpt lat="47.48232" lon="-0.59142">
        <ele>21.7669678</ele>
        <time>2011-07-23T09:31:04Z</time>
      </trkpt>
      <trkpt lat="47.48236" lon="-0.59126">
        <ele>21.7669678</ele>
        <time>2011-07-23T09:31:08Z</time>
      </trkpt>
      <trkpt lat="47.48237" lon="-0.59106">
        <ele>20.3249512</ele>
        <time>2011-07-23T09:31:13Z</time>
      </trkpt>
      <trkpt lat="47.48237" lon="-0.59088">
        <ele>20.8056641</ele>
        <time>2011-07-23T09:31:17Z</time>
      </trkpt>
      <trkpt lat="47.48236" lon="-0.59068">
        <ele>22.2475586</ele>
        <time>2011-07-23T09:31:22Z</time>
      </trkpt>
      <trkpt lat="47.48236" lon="-0.59054">
        <ele>22.7282715</ele>
        <time>2011-07-23T09:31:25Z</time>
      </trkpt>
      <trkpt lat="47.4823" lon="-0.59034">
        <ele>24.651001</ele>
        <time>2011-07-23T09:31:30Z</time>
      </trkpt>
      <trkpt lat="47.48226" lon="-0.59019">
        <ele>25.6123047</ele>
        <time>2011-07-23T09:31:34Z</time>
      </trkpt>
      <trkpt lat="47.48222" lon="-0.58995">
        <ele>30.4188232</ele>
        <time>2011-07-23T09:31:40Z</time>
      </trkpt>
      <trkpt lat="47.48223" lon="-0.58991">
        <ele>29.9381104</ele>
        <time>2011-07-23T09:31:41Z</time>
      </trkpt>
      <trkpt lat="47.48218" lon="-0.58977">
        <ele>26.5736084</ele>
        <time>2011-07-23T09:31:45Z</time>
      </trkpt>
      <trkpt lat="47.48211" lon="-0.58961">
        <ele>25.1317139</ele>
        <time>2011-07-23T09:31:49Z</time>
      </trkpt>
      <trkpt lat="47.4821" lon="-0.58959">
        <ele>25.1317139</ele>
        <time>2011-07-23T09:31:50Z</time>
      </trkpt>
      <trkpt lat="47.48204" lon="-0.58938">
        <ele>23.6895752</ele>
        <time>2011-07-23T09:31:56Z</time>
      </trkpt>
      <trkpt lat="47.48198" lon="-0.58924">
        <ele>25.6123047</ele>
        <time>2011-07-23T09:32:00Z</time>
      </trkpt>
      <trkpt lat="47.48191" lon="-0.58896">
        <ele>28.4962158</ele>
        <time>2011-07-23T09:32:07Z</time>
      </trkpt>
      <trkpt lat="47.48191" lon="-0.58878">
        <ele>30.4188232</ele>
        <time>2011-07-23T09:32:12Z</time>
      </trkpt>
      <trkpt lat="47.48188" lon="-0.5886">
        <ele>30.8995361</ele>
        <time>2011-07-23T09:32:17Z</time>
      </trkpt>
      <trkpt lat="47.48185" lon="-0.58844">
        <ele>31.380127</ele>
        <time>2011-07-23T09:32:22Z</time>
      </trkpt>
      <trkpt lat="47.48178" lon="-0.58822">
        <ele>32.3415527</ele>
        <time>2011-07-23T09:32:27Z</time>
      </trkpt>
      <trkpt lat="47.48175" lon="-0.58802">
        <ele>31.380127</ele>
        <time>2011-07-23T09:32:32Z</time>
      </trkpt>
      <trkpt lat="47.4817" lon="-0.58786">
        <ele>33.3028564</ele>
        <time>2011-07-23T09:32:36Z</time>
      </trkpt>
      <trkpt lat="47.48166" lon="-0.58765">
        <ele>30.4188232</ele>
        <time>2011-07-23T09:32:41Z</time>
      </trkpt>
      <trkpt lat="47.48157" lon="-0.58741">
        <ele>27.0543213</ele>
        <time>2011-07-23T09:32:46Z</time>
      </trkpt>
      <trkpt lat="47.48153" lon="-0.58724">
        <ele>24.1702881</ele>
        <time>2011-07-23T09:32:50Z</time>
      </trkpt>
      <trkpt lat="47.4815" lon="-0.58716">
        <ele>23.6895752</ele>
        <time>2011-07-23T09:32:52Z</time>
      </trkpt>
      <trkpt lat="47.48149" lon="-0.5869">
        <ele>27.5349121</ele>
        <time>2011-07-23T09:32:59Z</time>
      </trkpt>
      <trkpt lat="47.48144" lon="-0.58673">
        <ele>33.3028564</ele>
        <time>2011-07-23T09:33:04Z</time>
      </trkpt>
      <trkpt lat="47.48136" lon="-0.5866">
        <ele>28.9769287</ele>
        <time>2011-07-23T09:33:09Z</time>
      </trkpt>
      <trkpt lat="47.4813" lon="-0.58644">
        <ele>33.7834473</ele>
        <time>2011-07-23T09:33:14Z</time>
      </trkpt>
      <trkpt lat="47.48128" lon="-0.58639">
        <ele>36.6674805</ele>
        <time>2011-07-23T09:33:16Z</time>
      </trkpt>
      <trkpt lat="47.48122" lon="-0.58624">
        <ele>43.3966064</ele>
        <time>2011-07-23T09:33:21Z</time>
      </trkpt>
      <trkpt lat="47.48113" lon="-0.58614">
        <ele>47.2418213</ele>
        <time>2011-07-23T09:33:25Z</time>
      </trkpt>
      <trkpt lat="47.48098" lon="-0.58601">
        <ele>49.1645508</ele>
        <time>2011-07-23T09:33:31Z</time>
      </trkpt>
      <trkpt lat="47.48085" lon="-0.58591">
        <ele>49.1645508</ele>
        <time>2011-07-23T09:33:36Z</time>
      </trkpt>
      <trkpt lat="47.48074" lon="-0.58584">
        <ele>45.7999268</ele>
        <time>2011-07-23T09:33:41Z</time>
      </trkpt>
      <trkpt lat="47.48062" lon="-0.58577">
        <ele>49.1645508</ele>
        <time>2011-07-23T09:33:45Z</time>
      </trkpt>
      <trkpt lat="47.48049" lon="-0.58569">
        <ele>49.1645508</ele>
        <time>2011-07-23T09:33:50Z</time>
      </trkpt>
      <trkpt lat="47.48038" lon="-0.58565">
        <ele>46.2806396</ele>
        <time>2011-07-23T09:33:54Z</time>
      </trkpt>
      <trkpt lat="47.4803" lon="-0.58565">
        <ele>42.4354248</ele>
        <time>2011-07-23T09:33:57Z</time>
      </trkpt>
      <trkpt lat="47.48022" lon="-0.58556">
        <ele>44.838623</ele>
        <time>2011-07-23T09:34:01Z</time>
      </trkpt>
      <trkpt lat="47.48016" lon="-0.58538">
        <ele>43.3966064</ele>
        <time>2011-07-23T09:34:06Z</time>
      </trkpt>
      <trkpt lat="47.48011" lon="-0.58522">
        <ele>41.9547119</ele>
        <time>2011-07-23T09:34:10Z</time>
      </trkpt>
      <trkpt lat="47.48002" lon="-0.58506">
        <ele>31.380127</ele>
        <time>2011-07-23T09:34:15Z</time>
      </trkpt>
      <trkpt lat="47.47995" lon="-0.58492">
        <ele>29.4575195</ele>
        <time>2011-07-23T09:34:19Z</time>
      </trkpt>
      <trkpt lat="47.47986" lon="-0.58474">
        <ele>29.9381104</ele>
        <time>2011-07-23T09:34:24Z</time>
      </trkpt>
      <trkpt lat="47.4798" lon="-0.58461">
        <ele>28.9769287</ele>
        <time>2011-07-23T09:34:28Z</time>
      </trkpt>
      <trkpt lat="47.47978" lon="-0.58453">
        <ele>27.0543213</ele>
        <time>2011-07-23T09:34:31Z</time>
      </trkpt>
      <trkpt lat="47.47969" lon="-0.58431">
        <ele>21.7669678</ele>
        <time>2011-07-23T09:34:37Z</time>
      </trkpt>
      <trkpt lat="47.47964" lon="-0.5841">
        <ele>17.4411621</ele>
        <time>2011-07-23T09:34:42Z</time>
      </trkpt>
      <trkpt lat="47.47961" lon="-0.58393">
        <ele>15.9990234</ele>
        <time>2011-07-23T09:34:47Z</time>
      </trkpt>
      <trkpt lat="47.47957" lon="-0.58373">
        <ele>15.0377197</ele>
        <time>2011-07-23T09:34:52Z</time>
      </trkpt>
      <trkpt lat="47.47946" lon="-0.58355">
        <ele>17.9217529</ele>
        <time>2011-07-23T09:34:57Z</time>
      </trkpt>
      <trkpt lat="47.47934" lon="-0.58349">
        <ele>15.0377197</ele>
        <time>2011-07-23T09:35:01Z</time>
      </trkpt>
      <trkpt lat="47.47925" lon="-0.5834">
        <ele>19.3637695</ele>
        <time>2011-07-23T09:35:05Z</time>
      </trkpt>
      <trkpt lat="47.47924" lon="-0.58338">
        <ele>19.8443604</ele>
        <time>2011-07-23T09:35:06Z</time>
      </trkpt>
      <trkpt lat="47.4792" lon="-0.58323">
        <ele>23.2089844</ele>
        <time>2011-07-23T09:35:10Z</time>
      </trkpt>
      <trkpt lat="47.47915" lon="-0.58298">
        <ele>24.651001</ele>
        <time>2011-07-23T09:35:16Z</time>
      </trkpt>
      <trkpt lat="47.47909" lon="-0.5828">
        <ele>25.1317139</ele>
        <time>2011-07-23T09:35:21Z</time>
      </trkpt>
      <trkpt lat="47.47909" lon="-0.58276">
        <ele>24.1702881</ele>
        <time>2011-07-23T09:35:22Z</time>
      </trkpt>
      <trkpt lat="47.47905" lon="-0.58256">
        <ele>20.8056641</ele>
        <time>2011-07-23T09:35:27Z</time>
      </trkpt>
      <trkpt lat="47.47901" lon="-0.58238">
        <ele>18.8830566</ele>
        <time>2011-07-23T09:35:32Z</time>
      </trkpt>
      <trkpt lat="47.47896" lon="-0.58226">
        <ele>18.4023438</ele>
        <time>2011-07-23T09:35:36Z</time>
      </trkpt>
      <trkpt lat="47.47888" lon="-0.5822">
        <ele>18.8830566</ele>
        <time>2011-07-23T09:35:40Z</time>
      </trkpt>
      <trkpt lat="47.47877" lon="-0.58211">
        <ele>20.3249512</ele>
        <time>2011-07-23T09:35:45Z</time>
      </trkpt>
      <trkpt lat="47.47871" lon="-0.58204">
        <ele>22.2475586</ele>
        <time>2011-07-23T09:35:48Z</time>
      </trkpt>
      <trkpt lat="47.47862" lon="-0.58187">
        <ele>23.2089844</ele>
        <time>2011-07-23T09:35:54Z</time>
      </trkpt>
      <trkpt lat="47.4786" lon="-0.5817">
        <ele>23.6895752</ele>
        <time>2011-07-23T09:35:59Z</time>
      </trkpt>
      <trkpt lat="47.47857" lon="-0.58156">
        <ele>25.6123047</ele>
        <time>2011-07-23T09:36:03Z</time>
      </trkpt>
      <trkpt lat="47.47856" lon="-0.58151">
        <ele>26.0928955</ele>
        <time>2011-07-23T09:36:04Z</time>
      </trkpt>
      <trkpt lat="47.47853" lon="-0.58133">
        <ele>26.0928955</ele>
        <time>2011-07-23T09:36:09Z</time>
      </trkpt>
      <trkpt lat="47.47849" lon="-0.58112">
        <ele>23.6895752</ele>
        <time>2011-07-23T09:36:14Z</time>
      </trkpt>
      <trkpt lat="47.47848" lon="-0.58092">
        <ele>19.8443604</ele>
        <time>2011-07-23T09:36:19Z</time>
      </trkpt>
      <trkpt lat="47.47843" lon="-0.58079">
        <ele>18.8830566</ele>
        <time>2011-07-23T09:36:23Z</time>
      </trkpt>
      <trkpt lat="47.47834" lon="-0.58063">
        <ele>18.8830566</ele>
        <time>2011-07-23T09:36:29Z</time>
      </trkpt>
      <trkpt lat="47.47825" lon="-0.58056">
        <ele>21.7669678</ele>
        <time>2011-07-23T09:36:34Z</time>
      </trkpt>
      <trkpt lat="47.47817" lon="-0.58053">
        <ele>22.7282715</ele>
        <time>2011-07-23T09:36:38Z</time>
      </trkpt>
      <trkpt lat="47.47809" lon="-0.58066">
        <ele>24.651001</ele>
        <time>2011-07-23T09:36:42Z</time>
      </trkpt>
      <trkpt lat="47.47803" lon="-0.5808">
        <ele>25.6123047</ele>
        <time>2011-07-23T09:36:46Z</time>
      </trkpt>
      <trkpt lat="47.47796" lon="-0.58095">
        <ele>25.6123047</ele>
        <time>2011-07-23T09:36:51Z</time>
      </trkpt>
      <trkpt lat="47.47791" lon="-0.58108">
        <ele>25.1317139</ele>
        <time>2011-07-23T09:36:55Z</time>
      </trkpt>
      <trkpt lat="47.47778" lon="-0.58127">
        <ele>24.1702881</ele>
        <time>2011-07-23T09:37:01Z</time>
      </trkpt>
      <trkpt lat="47.47768" lon="-0.5814">
        <ele>23.2089844</ele>
        <time>2011-07-23T09:37:06Z</time>
      </trkpt>
      <trkpt lat="47.47761" lon="-0.58152">
        <ele>23.6895752</ele>
        <time>2011-07-23T09:37:11Z</time>
      </trkpt>
      <trkpt lat="47.4776" lon="-0.58154">
        <ele>23.6895752</ele>
        <time>2011-07-23T09:37:12Z</time>
      </trkpt>
      <trkpt lat="47.47749" lon="-0.58164">
        <ele>23.6895752</ele>
        <time>2011-07-23T09:37:17Z</time>
      </trkpt>
      <trkpt lat="47.47739" lon="-0.58172">
        <ele>22.7282715</ele>
        <time>2011-07-23T09:37:21Z</time>
      </trkpt>
      <trkpt lat="47.47728" lon="-0.58188">
        <ele>23.2089844</ele>
        <time>2011-07-23T09:37:27Z</time>
      </trkpt>
      <trkpt lat="47.4772" lon="-0.582">
        <ele>23.6895752</ele>
        <time>2011-07-23T09:37:31Z</time>
      </trkpt>
      <trkpt lat="47.47713" lon="-0.58218">
        <ele>25.1317139</ele>
        <time>2011-07-23T09:37:36Z</time>
      </trkpt>
      <trkpt lat="47.4771" lon="-0.58228">
        <ele>26.5736084</ele>
        <time>2011-07-23T09:37:39Z</time>
      </trkpt>
      <trkpt lat="47.47703" lon="-0.58234">
        <ele>28.0155029</ele>
        <time>2011-07-23T09:37:43Z</time>
      </trkpt>
      <trkpt lat="47.4769" lon="-0.58243">
        <ele>30.8995361</ele>
        <time>2011-07-23T09:37:49Z</time>
      </trkpt>
      <trkpt lat="47.47677" lon="-0.58251">
        <ele>30.4188232</ele>
        <time>2011-07-23T09:37:54Z</time>
      </trkpt>
      <trkpt lat="47.47663" lon="-0.58249">
        <ele>29.4575195</ele>
        <time>2011-07-23T09:37:59Z</time>
      </trkpt>
      <trkpt lat="47.47649" lon="-0.58258">
        <ele>28.0155029</ele>
        <time>2011-07-23T09:38:04Z</time>
      </trkpt>
      <trkpt lat="47.47636" lon="-0.58273">
        <ele>24.1702881</ele>
        <time>2011-07-23T09:38:09Z</time>
      </trkpt>
      <trkpt lat="47.47627" lon="-0.58286">
        <ele>25.6123047</ele>
        <time>2011-07-23T09:38:14Z</time>
      </trkpt>
      <trkpt lat="47.47624" lon="-0.58291">
        <ele>26.5736084</ele>
        <time>2011-07-23T09:38:16Z</time>
      </trkpt>
      <trkpt lat="47.47615" lon="-0.58298">
        <ele>30.8995361</ele>
        <time>2011-07-23T09:38:21Z</time>
      </trkpt>
      <trkpt lat="47.47604" lon="-0.5829">
        <ele>36.6674805</ele>
        <time>2011-07-23T09:38:26Z</time>
      </trkpt>
      <trkpt lat="47.47592" lon="-0.58286">
        <ele>35.7060547</ele>
        <time>2011-07-23T09:38:30Z</time>
      </trkpt>
      <trkpt lat="47.47579" lon="-0.58282">
        <ele>35.7060547</ele>
        <time>2011-07-23T09:38:35Z</time>
      </trkpt>
      <trkpt lat="47.47564" lon="-0.58281">
        <ele>35.2254639</ele>
        <time>2011-07-23T09:38:40Z</time>
      </trkpt>
      <trkpt lat="47.47559" lon="-0.58281">
        <ele>34.744873</ele>
        <time>2011-07-23T09:38:42Z</time>
      </trkpt>
      <trkpt lat="47.47548" lon="-0.58274">
        <ele>34.2641602</ele>
        <time>2011-07-23T09:38:46Z</time>
      </trkpt>
      <trkpt lat="47.47538" lon="-0.58256">
        <ele>28.4962158</ele>
        <time>2011-07-23T09:38:51Z</time>
      </trkpt>
      <trkpt lat="47.47531" lon="-0.58241">
        <ele>28.0155029</ele>
        <time>2011-07-23T09:38:57Z</time>
      </trkpt>
      <trkpt lat="47.47531" lon="-0.58227">
        <ele>26.0928955</ele>
        <time>2011-07-23T09:39:00Z</time>
      </trkpt>
      <trkpt lat="47.47531" lon="-0.58206">
        <ele>23.2089844</ele>
        <time>2011-07-23T09:39:05Z</time>
      </trkpt>
      <trkpt lat="47.4753" lon="-0.58191">
        <ele>21.7669678</ele>
        <time>2011-07-23T09:39:09Z</time>
      </trkpt>
      <trkpt lat="47.47527" lon="-0.58177">
        <ele>20.8056641</ele>
        <time>2011-07-23T09:39:14Z</time>
      </trkpt>
      <trkpt lat="47.47521" lon="-0.58157">
        <ele>21.286377</ele>
        <time>2011-07-23T09:39:21Z</time>
      </trkpt>
      <trkpt lat="47.47517" lon="-0.58138">
        <ele>23.6895752</ele>
        <time>2011-07-23T09:39:26Z</time>
      </trkpt>
      <trkpt lat="47.47517" lon="-0.58115">
        <ele>23.2089844</ele>
        <time>2011-07-23T09:39:32Z</time>
      </trkpt>
      <trkpt lat="47.47518" lon="-0.58089">
        <ele>25.6123047</ele>
        <time>2011-07-23T09:39:38Z</time>
      </trkpt>
      <trkpt lat="47.47518" lon="-0.58065">
        <ele>25.6123047</ele>
        <time>2011-07-23T09:39:44Z</time>
      </trkpt>
      <trkpt lat="47.47518" lon="-0.58047">
        <ele>24.651001</ele>
        <time>2011-07-23T09:39:48Z</time>
      </trkpt>
      <trkpt lat="47.47516" lon="-0.58024">
        <ele>23.2089844</ele>
        <time>2011-07-23T09:39:54Z</time>
      </trkpt>
      <trkpt lat="47.47513" lon="-0.58004">
        <ele>25.1317139</ele>
        <time>2011-07-23T09:39:59Z</time>
      </trkpt>
      <trkpt lat="47.47512" lon="-0.57997">
        <ele>24.651001</ele>
        <time>2011-07-23T09:40:01Z</time>
      </trkpt>
      <trkpt lat="47.47513" lon="-0.57977">
        <ele>25.1317139</ele>
        <time>2011-07-23T09:40:06Z</time>
      </trkpt>
      <trkpt lat="47.47513" lon="-0.57973">
        <ele>26.0928955</ele>
        <time>2011-07-23T09:40:07Z</time>
      </trkpt>
      <trkpt lat="47.4751" lon="-0.57951">
        <ele>27.0543213</ele>
        <time>2011-07-23T09:40:13Z</time>
      </trkpt>
      <trkpt lat="47.47506" lon="-0.57934">
        <ele>27.5349121</ele>
        <time>2011-07-23T09:40:17Z</time>
      </trkpt>
      <trkpt lat="47.47501" lon="-0.57909">
        <ele>25.6123047</ele>
        <time>2011-07-23T09:40:23Z</time>
      </trkpt>
      <trkpt lat="47.47498" lon="-0.57893">
        <ele>27.0543213</ele>
        <time>2011-07-23T09:40:27Z</time>
      </trkpt>
      <trkpt lat="47.47491" lon="-0.57865">
        <ele>24.1702881</ele>
        <time>2011-07-23T09:40:34Z</time>
      </trkpt>
      <trkpt lat="47.47487" lon="-0.57846">
        <ele>26.0928955</ele>
        <time>2011-07-23T09:40:38Z</time>
      </trkpt>
      <trkpt lat="47.47483" lon="-0.57829">
        <ele>26.0928955</ele>
        <time>2011-07-23T09:40:42Z</time>
      </trkpt>
      <trkpt lat="47.47478" lon="-0.57815">
        <ele>26.5736084</ele>
        <time>2011-07-23T09:40:46Z</time>
      </trkpt>
      <trkpt lat="47.47472" lon="-0.57798">
        <ele>23.6895752</ele>
        <time>2011-07-23T09:40:50Z</time>
      </trkpt>
      <trkpt lat="47.47466" lon="-0.57783">
        <ele>23.6895752</ele>
        <time>2011-07-23T09:40:54Z</time>
      </trkpt>
      <trkpt lat="47.47453" lon="-0.57765">
        <ele>22.2475586</ele>
        <time>2011-07-23T09:41:00Z</time>
      </trkpt>
      <trkpt lat="47.47439" lon="-0.57752">
        <ele>22.7282715</ele>
        <time>2011-07-23T09:41:06Z</time>
      </trkpt>
      <trkpt lat="47.47432" lon="-0.57744">
        <ele>23.6895752</ele>
        <time>2011-07-23T09:41:09Z</time>
      </trkpt>
      <trkpt lat="47.47427" lon="-0.57724">
        <ele>24.651001</ele>
        <time>2011-07-23T09:41:14Z</time>
      </trkpt>
      <trkpt lat="47.47427" lon="-0.5772">
        <ele>24.651001</ele>
        <time>2011-07-23T09:41:15Z</time>
      </trkpt>
    </trkseg>
  </trk>
</gpx>